createdAt,value
2022-10-05T00:01:28.895Z,44.67
2022-10-05T00:04:08.493Z,48.03
2022-10-05T00:06:37.728Z,45.53
2022-10-05T00:09:19.380Z,46.65
2022-10-05T00:11:49.818Z,43.55
2022-10-05T00:14:29.949Z,42.80
2022-10-05T00:16:59.592Z,43.50
2022-10-05T00:19:40.947Z,42.80
2022-10-05T00:22:30.176Z,44.90
2022-10-05T00:25:04.718Z,44.22
2022-10-05T00:27:37.713Z,42.22
2022-10-05T00:30:16.323Z,43.05
2022-10-05T00:32:46.592Z,42.28
2022-10-05T00:35:18.090Z,39.95
2022-10-05T00:37:52.245Z,42.33
2022-10-05T00:40:58.769Z,41.67
2022-10-05T00:44:21.617Z,44.03
2022-10-05T00:46:59.612Z,44.40
2022-10-05T00:49:55.906Z,44.58
2022-10-05T00:52:34.233Z,55.92
2022-10-05T00:55:47.682Z,63.88
2022-10-05T00:58:22.849Z,62.90
2022-10-05T01:01:29.516Z,61.67
2022-10-05T01:04:28.992Z,60.33
2022-10-05T01:07:35.178Z,57.33
2022-10-05T01:10:40.221Z,59.92
2022-10-05T01:13:34.245Z,58.50
2022-10-05T01:16:10.897Z,59.00
2022-10-05T01:19:03.162Z,60.83
2022-10-05T01:21:44.951Z,58.83
2022-10-05T01:24:34.875Z,59.55
2022-10-05T01:27:04.285Z,66.00
2022-10-05T01:29:42.731Z,61.20
2022-10-05T01:32:43.772Z,56.35
2022-10-05T01:35:27.865Z,58.83
2022-10-05T01:38:00.839Z,57.20
2022-10-05T01:40:46.177Z,56.85
2022-10-05T01:43:31.299Z,58.50
2022-10-05T01:46:13.203Z,58.38
2022-10-05T01:49:14.297Z,59.05
2022-10-05T01:52:01.702Z,61.88
2022-10-05T01:54:56.867Z,62.65
2022-10-05T01:57:45.492Z,59.20
2022-10-05T02:00:22.277Z,60.42
2022-10-05T02:03:03.132Z,61.08
2022-10-05T02:05:42.686Z,61.83
2022-10-05T02:08:34.003Z,63.88
2022-10-05T02:11:10.230Z,77.82
2022-10-05T02:13:54.577Z,77.20
2022-10-05T02:16:45.597Z,72.72
2022-10-05T02:19:36.889Z,73.18
2022-10-05T02:22:13.331Z,70.47
2022-10-05T02:24:52.510Z,74.15
2022-10-05T02:27:28.855Z,74.93
2022-10-05T02:30:04.102Z,76.70
2022-10-05T02:32:50.977Z,74.35
2022-10-05T02:35:23.045Z,76.95
2022-10-05T02:38:23.156Z,79.43
2022-10-05T02:41:05.454Z,79.88
2022-10-05T02:44:05.272Z,84.77
2022-10-05T02:46:59.044Z,88.40
2022-10-05T02:49:55.580Z,90.55
2022-10-05T02:52:46.134Z,107.40
2022-10-05T02:55:32.201Z,100.43
2022-10-05T02:58:24.049Z,95.30
2022-10-05T03:01:08.558Z,94.22
2022-10-05T03:03:57.405Z,92.65
2022-10-05T03:06:36.947Z,93.63
2022-10-05T03:09:09.509Z,94.55
2022-10-05T03:12:07.243Z,96.43
2022-10-05T03:14:48.849Z,94.45
2022-10-05T03:17:23.740Z,99.72
2022-10-05T03:20:24.096Z,102.35
2022-10-05T03:23:02.814Z,104.05
2022-10-05T03:25:57.563Z,111.78
2022-10-05T03:28:46.421Z,108.97
2022-10-05T03:31:55.384Z,109.88
2022-10-05T03:34:38.528Z,117.03
2022-10-05T03:40:04.835Z,118.38
2022-10-05T03:42:43.191Z,117.82
2022-10-05T03:45:30.859Z,121.60
2022-10-05T03:48:03.206Z,126.22
2022-10-05T03:50:46.127Z,124.90
2022-10-05T03:53:29.021Z,123.88
2022-10-05T03:56:06.157Z,123.95
2022-10-05T03:58:45.529Z,127.47
2022-10-05T04:01:21.053Z,128.82
2022-10-05T04:04:00.906Z,122.55
2022-10-05T04:06:42.075Z,124.63
2022-10-05T04:09:20.710Z,128.50
2022-10-05T04:11:52.408Z,125.85
2022-10-05T04:14:47.350Z,134.25
2022-10-05T04:17:23.477Z,145.60
2022-10-05T04:20:07.289Z,147.30
2022-10-05T04:22:42.175Z,154.50
2022-10-05T04:25:18.565Z,152.60
2022-10-05T04:28:04.913Z,139.50
2022-10-05T04:30:39.612Z,106.75
2022-10-05T04:33:14.864Z,109.32
2022-10-05T04:36:23.527Z,97.13
2022-10-05T04:39:25.507Z,95.60
2022-10-05T04:42:08.437Z,92.82
2022-10-05T04:45:26.055Z,80.63
2022-10-05T04:48:23.760Z,64.55
2022-10-05T04:50:57.346Z,63.90
2022-10-05T04:53:37.331Z,61.20
2022-10-05T04:56:20.807Z,58.53
2022-10-05T04:59:30.755Z,60.42
2022-10-05T05:02:18.390Z,57.00
2022-10-05T05:05:16.912Z,46.08
2022-10-05T05:08:03.450Z,41.05
2022-10-05T05:10:55.081Z,44.70
2022-10-05T05:13:45.316Z,41.35
2022-10-05T05:16:37.209Z,31.95
2022-10-05T05:19:24.243Z,32.20
2022-10-05T05:22:09.083Z,31.20
2022-10-05T05:24:58.406Z,24.02
2022-10-05T05:27:50.618Z,26.08
2022-10-05T05:30:52.407Z,26.75
2022-10-05T05:33:28.390Z,27.65
2022-10-05T05:36:36.168Z,30.45
2022-10-05T05:39:06.025Z,32.92
2022-10-05T05:42:00.101Z,38.67
2022-10-05T05:44:42.721Z,34.80
2022-10-05T05:47:22.130Z,44.05
2022-10-05T05:50:19.715Z,39.83
2022-10-05T05:53:25.186Z,36.05
2022-10-05T05:56:12.738Z,25.45
2022-10-05T05:58:48.642Z,27.42
2022-10-05T06:01:34.179Z,22.10
2022-10-05T06:04:18.465Z,23.02
2022-10-05T06:06:52.524Z,32.00
2022-10-05T06:09:34.273Z,38.17
2022-10-05T06:12:35.954Z,23.98
2022-10-05T06:15:13.198Z,22.20
2022-10-05T06:17:51.185Z,21.73
2022-10-05T06:20:30.744Z,26.33
2022-10-05T06:23:04.862Z,26.02
2022-10-05T06:25:51.126Z,19.70
2022-10-05T06:28:20.795Z,18.77
2022-10-05T06:31:22.539Z,20.20
2022-10-05T06:34:05.131Z,23.60
2022-10-05T06:36:54.398Z,20.75
2022-10-05T06:39:45.140Z,18.92
2022-10-05T06:42:39.087Z,20.88
2022-10-05T06:46:00.236Z,14.45
2022-10-05T06:48:59.728Z,20.63
2022-10-05T06:51:53.090Z,28.88
2022-10-05T06:55:09.534Z,30.50
2022-10-05T06:58:08.879Z,16.17
2022-10-05T07:00:58.724Z,21.05
2022-10-05T07:03:42.890Z,27.42
2022-10-05T07:06:21.870Z,24.25
2022-10-05T07:09:19.211Z,21.63
2022-10-05T07:12:00.876Z,25.02
2022-10-05T07:15:02.968Z,26.55
2022-10-05T07:17:46.682Z,22.92
2022-10-05T07:20:26.805Z,21.75
2022-10-05T07:23:08.388Z,23.50
2022-10-05T07:25:47.743Z,21.77
2022-10-05T07:28:26.651Z,20.88
2022-10-05T07:31:23.157Z,19.17
2022-10-05T07:34:23.448Z,16.77
2022-10-05T07:37:14.384Z,16.17
2022-10-05T07:40:06.784Z,15.48
2022-10-05T07:42:59.671Z,13.95
2022-10-05T07:48:23.901Z,17.88
2022-10-05T07:51:19.559Z,15.18
2022-10-05T07:54:09.093Z,14.18
2022-10-05T07:56:45.278Z,14.40
2022-10-05T07:59:47.028Z,13.15
2022-10-05T08:02:45.576Z,15.13
2022-10-05T08:05:37.069Z,15.93
2022-10-05T08:08:34.035Z,15.40
2022-10-05T08:11:18.667Z,16.30
2022-10-05T08:13:51.062Z,16.65
2022-10-05T08:19:07.934Z,14.07
2022-10-05T08:21:42.941Z,15.68
2022-10-05T08:24:45.885Z,14.13
2022-10-05T08:27:24.860Z,13.07
2022-10-05T08:30:12.021Z,12.07
2022-10-05T08:33:04.073Z,14.65
2022-10-05T08:35:45.017Z,14.32
2022-10-05T08:38:26.390Z,18.77
2022-10-05T08:41:37.763Z,15.77
2022-10-05T08:44:43.036Z,13.90
2022-10-05T08:47:22.920Z,15.50
2022-10-05T08:50:19.323Z,14.07
2022-10-05T08:53:32.056Z,15.57
2022-10-05T08:59:17.762Z,16.10
2022-10-05T09:02:11.618Z,16.38
2022-10-05T09:04:49.912Z,19.02
2022-10-05T09:07:23.418Z,23.05
2022-10-05T09:10:20.332Z,20.15
2022-10-05T09:13:12.619Z,17.40
2022-10-05T09:16:06.100Z,16.90
2022-10-05T09:18:53.804Z,21.30
2022-10-05T09:21:43.677Z,18.25
2022-10-05T09:24:28.005Z,24.55
2022-10-05T09:27:17.883Z,16.50
2022-10-05T09:30:14.363Z,14.80
2022-10-05T09:33:10.615Z,13.05
2022-10-05T09:36:01.506Z,19.02
2022-10-05T09:39:06.945Z,15.32
2022-10-05T09:42:04.888Z,11.30
2022-10-05T09:44:43.296Z,11.82
2022-10-05T09:47:46.275Z,27.50
2022-10-05T09:50:42.035Z,11.57
2022-10-05T09:53:41.532Z,11.88
2022-10-05T09:56:20.184Z,10.07
2022-10-05T09:59:04.837Z,10.57
2022-10-05T10:01:55.628Z,10.20
2022-10-05T10:05:15.673Z,9.20
2022-10-05T10:08:05.826Z,12.65
2022-10-05T10:10:59.317Z,12.75
2022-10-05T10:14:01.294Z,9.88
2022-10-05T10:16:45.122Z,11.55
2022-10-05T10:19:49.168Z,11.30
2022-10-05T10:22:28.588Z,10.57
2022-10-05T10:25:25.518Z,8.40
2022-10-05T10:28:14.611Z,7.38
2022-10-05T10:31:02.161Z,8.30
2022-10-05T10:33:58.352Z,7.43
2022-10-05T10:37:07.394Z,9.00
2022-10-05T10:40:00.421Z,8.15
2022-10-05T10:42:44.481Z,9.82
2022-10-05T10:45:50.937Z,8.52
2022-10-05T10:48:32.644Z,14.45
2022-10-05T10:51:10.592Z,7.97
2022-10-05T10:54:23.843Z,8.50
2022-10-05T10:57:16.418Z,8.63
2022-10-05T11:00:07.737Z,12.10
2022-10-05T11:02:51.399Z,9.63
2022-10-05T11:05:39.518Z,9.18
2022-10-05T11:08:26.776Z,9.18
2022-10-05T11:11:24.186Z,9.73
2022-10-05T11:14:12.838Z,13.60
2022-10-05T11:17:00.238Z,10.18
2022-10-05T11:20:03.747Z,9.98
2022-10-05T11:23:19.582Z,11.20
2022-10-05T11:26:06.623Z,15.63
2022-10-05T11:28:38.719Z,17.40
2022-10-05T11:31:27.241Z,13.43
2022-10-05T11:33:56.435Z,13.32
2022-10-05T11:37:02.098Z,14.60
2022-10-05T11:39:40.074Z,16.80
2022-10-05T11:42:28.730Z,14.27
2022-10-05T11:45:27.115Z,16.00
2022-10-05T11:48:02.278Z,13.90
2022-10-05T11:50:59.393Z,20.15
2022-10-05T11:53:42.927Z,19.27
2022-10-05T11:59:06.194Z,19.80
2022-10-05T12:01:51.299Z,22.92
2022-10-05T12:05:09.125Z,24.80
2022-10-05T12:07:56.125Z,19.77
2022-10-05T12:10:44.686Z,24.60
2022-10-05T12:13:45.516Z,25.48
2022-10-05T12:16:33.815Z,21.33
2022-10-05T12:19:29.362Z,26.08
2022-10-05T12:22:18.986Z,31.13
2022-10-05T12:25:06.440Z,28.70
2022-10-05T12:27:47.207Z,30.98
2022-10-05T12:30:33.972Z,30.83
2022-10-05T12:33:25.093Z,30.08
2022-10-05T12:36:07.095Z,29.25
2022-10-05T12:38:39.764Z,35.10
2022-10-05T12:41:30.461Z,27.65
2022-10-05T12:44:14.475Z,22.73
2022-10-05T12:47:07.467Z,25.02
2022-10-05T12:49:57.234Z,23.77
2022-10-05T12:52:45.731Z,25.88
2022-10-05T12:55:31.918Z,25.23
2022-10-05T12:58:14.212Z,23.77
2022-10-05T13:00:58.291Z,26.00
2022-10-05T13:03:39.113Z,25.17
2022-10-05T13:06:32.719Z,26.15
2022-10-05T13:09:14.633Z,28.25
2022-10-05T13:11:52.995Z,31.75
2022-10-05T13:15:05.644Z,33.90
2022-10-05T13:17:37.733Z,40.03
2022-10-05T13:20:29.132Z,55.78
2022-10-05T13:23:09.119Z,50.67
2022-10-05T13:25:47.173Z,53.13
2022-10-05T13:28:27.454Z,47.78
2022-10-05T13:31:08.514Z,41.33
2022-10-05T13:34:09.920Z,41.00
2022-10-05T13:36:45.807Z,44.08
2022-10-05T13:39:40.479Z,46.97
2022-10-05T13:42:27.991Z,46.92
2022-10-05T13:45:22.671Z,45.47
2022-10-05T13:48:04.838Z,44.15
2022-10-05T13:50:39.833Z,46.30
2022-10-05T13:53:50.391Z,44.95
2022-10-05T13:56:50.180Z,43.58
2022-10-05T13:59:34.413Z,34.50
2022-10-05T14:02:11.247Z,30.90
2022-10-05T14:04:48.110Z,31.85
2022-10-05T14:07:35.377Z,40.72
2022-10-05T14:10:13.452Z,34.60
2022-10-05T14:12:46.802Z,35.33
2022-10-05T14:15:34.145Z,46.58
2022-10-05T14:18:29.636Z,48.45
2022-10-05T14:21:17.414Z,46.75
2022-10-05T14:23:47.106Z,44.10
2022-10-05T14:26:34.447Z,39.67
2022-10-05T14:29:05.425Z,38.28
2022-10-05T14:31:38.814Z,32.38
2022-10-05T14:34:27.261Z,33.55
2022-10-05T14:37:03.205Z,32.78
2022-10-05T14:39:36.469Z,31.77
2022-10-05T14:42:28.139Z,34.50
2022-10-05T14:45:13.118Z,35.70
2022-10-05T14:47:54.796Z,37.13
2022-10-05T14:50:30.808Z,36.67
2022-10-05T14:53:26.251Z,38.22
2022-10-05T14:55:58.404Z,38.75
2022-10-05T14:58:40.596Z,36.45
2022-10-05T15:01:15.707Z,37.03
2022-10-05T15:04:03.078Z,37.00
2022-10-05T15:06:40.237Z,38.45
2022-10-05T15:09:24.029Z,36.67
2022-10-05T15:11:57.712Z,35.80
2022-10-05T15:14:48.632Z,34.67
2022-10-05T15:17:45.548Z,34.92
2022-10-05T15:20:28.364Z,38.92
2022-10-05T15:23:00.416Z,35.70
2022-10-05T15:25:50.033Z,36.13
2022-10-05T15:28:25.238Z,38.20
2022-10-05T15:31:03.314Z,36.53
2022-10-05T15:33:39.634Z,39.35
2022-10-05T15:36:27.484Z,38.17
2022-10-05T15:39:27.992Z,39.05
2022-10-05T15:42:49.418Z,39.08
2022-10-05T15:45:38.667Z,41.53
2022-10-05T15:48:40.463Z,43.72
2022-10-05T15:51:31.106Z,41.83
2022-10-05T15:54:27.563Z,39.80
2022-10-05T15:57:26.489Z,41.50
2022-10-05T16:00:15.993Z,41.97
2022-10-05T16:03:24.258Z,40.67
2022-10-05T16:06:21.639Z,38.47
2022-10-05T16:08:56.577Z,40.65
2022-10-05T16:11:44.188Z,41.90
2022-10-05T16:14:13.725Z,40.30
2022-10-05T16:17:18.867Z,36.83
2022-10-05T16:20:10.704Z,33.60
2022-10-05T16:23:11.394Z,35.03
2022-10-05T16:26:05.020Z,31.75
2022-10-05T16:28:54.420Z,30.90
2022-10-05T16:31:38.393Z,31.45
2022-10-05T16:34:32.178Z,28.92
2022-10-05T16:37:16.151Z,32.97
2022-10-05T16:40:01.128Z,30.52
2022-10-05T16:42:57.766Z,33.05
2022-10-05T16:45:59.401Z,33.25
2022-10-05T16:48:53.136Z,32.15
2022-10-05T16:51:28.278Z,31.08
2022-10-05T16:54:21.800Z,32.17
2022-10-05T16:57:04.419Z,31.35
2022-10-05T17:00:04.733Z,29.42
2022-10-05T17:02:47.205Z,30.83
2022-10-05T17:05:42.244Z,31.70
2022-10-05T17:08:32.998Z,30.45
2022-10-05T17:11:22.174Z,29.40
2022-10-05T17:14:17.099Z,27.33
2022-10-05T17:16:52.263Z,27.63
2022-10-05T17:19:36.210Z,28.17
2022-10-05T17:22:22.609Z,25.83
2022-10-05T17:25:00.615Z,24.77
2022-10-05T17:27:33.673Z,28.27
2022-10-05T17:30:29.601Z,25.65
2022-10-05T17:33:15.185Z,26.35
2022-10-05T17:35:55.394Z,25.95
2022-10-05T17:38:45.105Z,25.40
2022-10-05T17:41:17.201Z,28.55
2022-10-05T17:44:04.927Z,25.98
2022-10-05T17:46:48.537Z,26.40
2022-10-05T17:49:35.827Z,26.60
2022-10-05T17:52:40.700Z,26.63
2022-10-05T17:55:39.461Z,24.55
2022-10-05T17:58:29.883Z,23.15
2022-10-05T18:00:58.998Z,24.00
2022-10-05T18:03:51.123Z,23.35
2022-10-05T18:06:34.196Z,22.30
2022-10-05T18:09:34.967Z,23.42
2022-10-05T18:12:19.098Z,25.40
2022-10-05T18:15:09.094Z,27.48
2022-10-05T18:17:51.949Z,37.60
2022-10-05T18:20:29.785Z,30.13
2022-10-05T18:23:07.103Z,25.40
2022-10-05T18:26:06.142Z,25.40
2022-10-05T18:28:55.736Z,28.13
2022-10-05T18:31:26.849Z,26.23
2022-10-05T18:33:55.911Z,26.17
2022-10-05T18:36:47.973Z,26.52
2022-10-05T18:39:36.388Z,24.80
2022-10-05T18:42:34.082Z,25.88
2022-10-05T18:45:23.071Z,24.45
2022-10-05T18:48:18.139Z,25.30
2022-10-05T18:51:02.336Z,25.98
2022-10-05T18:53:45.387Z,25.80
2022-10-05T18:56:22.331Z,26.67
2022-10-05T18:58:56.915Z,25.33
2022-10-05T19:01:51.555Z,25.70
2022-10-05T19:04:24.035Z,27.02
2022-10-05T19:06:58.085Z,24.55
2022-10-05T19:09:51.390Z,27.90
2022-10-05T19:12:41.772Z,25.90
2022-10-05T19:15:24.426Z,27.25
2022-10-05T19:18:19.514Z,27.08
2022-10-05T19:21:19.078Z,28.90
2022-10-05T19:24:06.057Z,29.10
2022-10-05T19:27:07.793Z,29.90
2022-10-05T19:30:26.192Z,30.80
2022-10-05T19:33:16.772Z,28.52
2022-10-05T19:35:59.504Z,28.83
2022-10-05T19:39:06.614Z,30.35
2022-10-05T19:41:45.738Z,30.02
2022-10-05T19:44:18.957Z,30.63
2022-10-05T19:47:02.688Z,31.13
2022-10-05T19:49:59.862Z,29.52
2022-10-05T19:52:41.100Z,29.98
2022-10-05T19:55:15.908Z,31.15
2022-10-05T19:57:50.086Z,35.63
2022-10-05T20:00:27.961Z,31.13
2022-10-05T20:03:24.604Z,31.20
2022-10-05T20:05:55.055Z,32.42
2022-10-05T20:08:27.678Z,28.67
2022-10-05T20:11:11.069Z,29.00
2022-10-05T20:13:46.780Z,28.60
2022-10-05T20:16:37.061Z,29.67
2022-10-05T20:19:45.260Z,27.38
2022-10-05T20:22:36.923Z,28.30
2022-10-05T20:25:19.881Z,27.98
2022-10-05T20:27:56.482Z,28.58
2022-10-05T20:30:32.295Z,26.95
2022-10-05T20:33:11.397Z,26.80
2022-10-05T20:35:40.726Z,27.25
2022-10-05T20:38:09.670Z,28.50
2022-10-05T20:40:40.027Z,26.92
2022-10-05T20:43:09.185Z,27.30
2022-10-05T20:45:44.251Z,25.73
2022-10-05T20:48:15.302Z,24.48
2022-10-05T20:50:44.737Z,25.58
2022-10-05T20:53:14.171Z,26.35
2022-10-05T20:55:44.160Z,24.50
2022-10-05T20:58:13.124Z,24.33
2022-10-05T21:01:00.568Z,23.15
2022-10-05T21:03:29.793Z,23.88
2022-10-05T21:05:58.640Z,24.17
2022-10-05T21:08:28.261Z,22.42
2022-10-05T21:10:57.425Z,24.35
2022-10-05T21:13:27.630Z,25.27
2022-10-05T21:15:57.479Z,23.15
2022-10-05T21:18:26.898Z,23.70
2022-10-05T21:20:59.952Z,22.58
2022-10-05T21:23:33.608Z,22.98
2022-10-05T21:26:03.347Z,21.85
2022-10-05T21:28:34.771Z,22.92
2022-10-05T21:31:04.088Z,22.90
2022-10-05T21:33:33.602Z,24.08
2022-10-05T21:36:03.015Z,24.42
2022-10-05T21:38:31.993Z,25.23
2022-10-05T21:41:01.328Z,23.40
2022-10-05T21:43:30.481Z,25.42
2022-10-05T21:46:00.158Z,24.42
2022-10-05T21:48:31.357Z,25.95
2022-10-05T21:51:02.239Z,27.80
2022-10-05T21:53:40.048Z,27.48
2022-10-05T21:56:15.347Z,24.10
2022-10-05T21:58:46.818Z,25.05
2022-10-05T22:01:20.144Z,24.85
2022-10-05T22:03:51.586Z,25.98
2022-10-05T22:06:20.632Z,24.20
2022-10-05T22:08:50.093Z,23.23
2022-10-05T22:11:19.835Z,24.58
2022-10-05T22:13:51.412Z,23.08
2022-10-05T22:16:22.833Z,22.05
2022-10-05T22:18:54.602Z,22.70
2022-10-05T22:21:23.723Z,24.20
2022-10-05T22:23:52.683Z,21.65
2022-10-05T22:26:24.480Z,26.30
2022-10-05T22:28:57.359Z,26.40
2022-10-05T22:31:26.860Z,29.10
2022-10-05T22:33:55.876Z,24.95
2022-10-05T22:36:25.207Z,27.05
2022-10-05T22:38:54.219Z,25.45
2022-10-05T22:41:23.318Z,26.17
2022-10-05T22:43:53.023Z,25.55
2022-10-05T22:46:23.529Z,22.65
2022-10-05T22:48:52.765Z,22.67
2022-10-05T22:51:21.780Z,23.23
2022-10-05T22:53:51.166Z,23.15
2022-10-05T22:56:20.323Z,23.17
2022-10-05T22:58:49.537Z,21.98
2022-10-05T23:01:20.757Z,24.05
2022-10-05T23:03:49.842Z,23.10
2022-10-05T23:06:21.382Z,26.05
2022-10-05T23:08:50.640Z,23.98
2022-10-05T23:11:28.056Z,24.00
2022-10-05T23:13:57.978Z,25.30
2022-10-05T23:16:29.189Z,24.27
2022-10-05T23:18:59.418Z,23.67
2022-10-05T23:21:31.913Z,21.63
2022-10-05T23:24:01.462Z,24.15
2022-10-05T23:26:31.739Z,23.73
2022-10-05T23:29:01.134Z,22.92
2022-10-05T23:31:34.580Z,24.85
2022-10-05T23:34:03.774Z,25.20
2022-10-05T23:36:33.350Z,28.20
2022-10-05T23:39:02.684Z,29.05
2022-10-05T23:41:31.691Z,29.35
2022-10-05T23:44:00.829Z,30.67
2022-10-05T23:46:29.803Z,31.67
2022-10-05T23:48:58.976Z,28.70
2022-10-05T23:51:27.884Z,30.15
2022-10-05T23:53:57.151Z,28.95
2022-10-05T23:56:26.381Z,28.02
2022-10-05T23:58:55.597Z,29.15
